Time;durP1;ratioP1;P1;durP2;ratioP2;P2;SDS_P1;SDS_P2;PMS_P1;PMS_P2;Temp;Humidity;BMP_temperature;BMP_pressure;BME280_temperature;BME280_humidity;BME280_pressure;Samples;Min_cycle;Max_cycle;Signal;HPM_P1;HPM_P2
2022/04/27 00:01:56;;;;;;;;;16.67;12.67;;;;;;;;5038202;27;45460;-80
2022/04/27 00:04:21;;;;;;;;;12.67;12.00;;;;;;;;5014349;28;46639;-81
2022/04/27 00:06:46;;;;;;;;;12.33;11.67;;;;;;;;4996943;28;46972;-80
2022/04/27 00:09:12;;;;;;;;;13.67;11.00;;;;;;;;5001536;28;45741;-80
2022/04/27 00:11:38;;;;;;;;;13.67;13.33;;;;;;;;5010581;28;45762;-75
2022/04/27 00:14:03;;;;;;;;;13.00;13.00;;;;;;;;5011088;28;45543;-80
2022/04/27 00:16:29;;;;;;;;;13.33;12.33;;;;;;;;4992950;28;47767;-80
2022/04/27 00:18:55;;;;;;;;;14.00;13.67;;;;;;;;5010543;27;45385;-73
2022/04/27 00:21:20;;;;;;;;;15.33;13.67;;;;;;;;5009523;28;45930;-75
2022/04/27 00:23:46;;;;;;;;;14.00;13.00;;;;;;;;4991987;28;45518;-75
2022/04/27 00:26:11;;;;;;;;;14.00;12.33;;;;;;;;5010166;28;45752;-75
2022/04/27 00:28:36;;;;;;;;;12.67;12.33;;;;;;;;5011432;27;45551;-79
2022/04/27 00:31:01;;;;;;;;;10.67;10.67;;;;;;;;5011026;28;45494;-74
2022/04/27 00:33:27;;;;;;;;;15.00;14.00;;;;;;;;5012496;28;45669;-80
2022/04/27 00:35:52;;;;;;;;;13.00;11.67;;;;;;;;4994235;28;45845;-74
2022/04/27 00:38:18;;;;;;;;;14.33;12.00;;;;;;;;4999104;28;45764;-73
2022/04/27 00:40:44;;;;;;;;;14.00;13.00;;;;;;;;5009122;28;45780;-79
2022/04/27 00:43:09;;;;;;;;;13.00;13.00;;;;;;;;4998569;28;46250;-79
2022/04/27 00:45:34;;;;;;;;;16.67;13.67;;;;;;;;5011628;28;45684;-78
2022/04/27 00:48:00;;;;;;;;;13.00;13.00;;;;;;;;5014042;28;45567;-81
2022/04/27 00:50:25;;;;;;;;;18.33;17.67;;;;;;;;5013901;28;45904;-80
2022/04/27 00:52:51;;;;;;;;;18.33;16.00;;;;;;;;5003721;28;46000;-76
2022/04/27 00:55:16;;;;;;;;;16.33;13.33;;;;;;;;5009800;27;46816;-74
2022/04/27 00:57:46;;;;;;;;;15.67;14.00;;;;;;;;5011462;28;45309;-81
2022/04/27 01:00:12;;;;;;;;;13.33;13.33;;;;;;;;5012414;28;45543;-79
2022/04/27 01:02:37;;;;;;;;;14.67;12.00;;;;;;;;5011628;28;45705;-75
2022/04/27 01:05:07;;;;;;;;;17.33;15.67;;;;;;;;4990769;28;47780;-75
2022/04/27 01:07:33;;;;;;;;;13.33;13.33;;;;;;;;5008993;28;45803;-74
2022/04/27 01:09:58;;;;;;;;;15.00;13.33;;;;;;;;5007877;27;45938;-74
2022/04/27 01:12:23;;;;;;;;;16.00;14.67;;;;;;;;4995886;28;45956;-81
2022/04/27 01:14:49;;;;;;;;;16.33;13.00;;;;;;;;5007244;27;45456;-75
2022/04/27 01:17:14;;;;;;;;;14.00;13.33;;;;;;;;5012987;27;45701;-75
2022/04/27 01:19:39;;;;;;;;;16.00;15.00;;;;;;;;5003914;27;46024;-75
2022/04/27 01:22:05;;;;;;;;;18.33;15.67;;;;;;;;5030445;27;45489;-80
2022/04/27 01:24:30;;;;;;;;;14.67;14.67;;;;;;;;5010714;28;45477;-81
2022/04/27 01:26:56;;;;;;;;;16.00;13.33;;;;;;;;5024702;27;45322;-80
2022/04/27 01:29:22;;;;;;;;;13.67;13.67;;;;;;;;5048157;27;45845;-80
2022/04/27 01:31:48;;;;;;;;;17.33;13.33;;;;;;;;4991719;28;45867;-83
2022/04/27 01:34:13;;;;;;;;;16.33;15.67;;;;;;;;5006398;28;45471;-82
2022/04/27 01:36:39;;;;;;;;;15.00;13.67;;;;;;;;5037716;28;45259;-78
2022/04/27 01:39:05;;;;;;;;;17.00;14.00;;;;;;;;4999240;28;45644;-77
2022/04/27 01:41:30;;;;;;;;;17.00;15.33;;;;;;;;5016323;28;45752;-76
2022/04/27 01:43:57;;;;;;;;;23.33;21.00;;;;;;;;5018327;27;47302;-78
2022/04/27 01:46:22;;;;;;;;;22.33;17.00;;;;;;;;5010588;27;45649;-81
2022/04/27 01:48:48;;;;;;;;;16.33;16.33;;;;;;;;5042990;27;45502;-81
2022/04/27 01:51:13;;;;;;;;;16.33;14.00;;;;;;;;5036129;27;47413;-78
2022/04/27 01:56:22;;;;;;;;;21.67;19.33;;;;;;;;5034324;27;45577;-76
2022/04/27 01:58:48;;;;;;;;;23.67;19.00;;;;;;;;5040346;27;45930;-77
2022/04/27 02:01:13;;;;;;;;;18.67;15.33;;;;;;;;5011924;27;45797;-77
2022/04/27 02:03:39;;;;;;;;;18.33;16.33;;;;;;;;5027267;27;46714;-77
2022/04/27 02:06:05;;;;;;;;;15.67;14.33;;;;;;;;4995650;28;45764;-78
2022/04/27 02:08:30;;;;;;;;;23.67;18.33;;;;;;;;4994458;28;45405;-80
2022/04/27 02:10:55;;;;;;;;;18.00;16.33;;;;;;;;5012259;28;45476;-81
2022/04/27 02:13:21;;;;;;;;;21.00;16.67;;;;;;;;5013158;28;46960;-81
2022/04/27 02:15:46;;;;;;;;;19.00;16.67;;;;;;;;5012404;27;45428;-82
2022/04/27 02:18:11;;;;;;;;;20.67;19.67;;;;;;;;5012652;27;45816;-83
2022/04/27 02:20:37;;;;;;;;;22.00;21.67;;;;;;;;5012711;27;45874;-78
2022/04/27 02:23:02;;;;;;;;;24.33;22.33;;;;;;;;5011310;27;46553;-76
2022/04/27 02:25:27;;;;;;;;;22.33;17.67;;;;;;;;5011721;28;45819;-80
2022/04/27 02:27:53;;;;;;;;;23.00;21.00;;;;;;;;5013243;28;44737;-81
2022/04/27 02:30:21;;;;;;;;;21.33;19.33;;;;;;;;5013474;28;46048;-82
2022/04/27 02:32:47;;;;;;;;;18.00;17.00;;;;;;;;5012692;28;45768;-82
2022/04/27 02:35:13;;;;;;;;;21.50;19.50;;;;;;;;5013260;28;45409;-81
2022/04/27 02:37:38;;;;;;;;;23.00;18.67;;;;;;;;5012728;28;45888;-81
2022/04/27 02:40:04;;;;;;;;;21.67;19.33;;;;;;;;5012649;28;45377;-79
2022/04/27 02:42:30;;;;;;;;;20.33;19.00;;;;;;;;4993033;28;45378;-79
2022/04/27 02:44:55;;;;;;;;;25.00;22.00;;;;;;;;4991970;28;45407;-76
2022/04/27 02:47:24;;;;;;;;;18.00;18.00;;;;;;;;4999428;27;45589;-76
2022/04/27 02:52:33;;;;;;;;;22.67;19.00;;;;;;;;5011844;28;45659;-80
2022/04/27 02:54:58;;;;;;;;;24.00;22.33;;;;;;;;5011522;28;45920;-77
2022/04/27 02:57:24;;;;;;;;;19.33;17.67;;;;;;;;4993382;28;45454;-82
2022/04/27 02:59:49;;;;;;;;;23.33;18.33;;;;;;;;5011634;28;45449;-76
2022/04/27 03:02:15;;;;;;;;;26.67;23.67;;;;;;;;5009418;27;46101;-77
2022/04/27 03:04:40;;;;;;;;;25.33;23.33;;;;;;;;5010999;28;45463;-80
2022/04/27 03:07:06;;;;;;;;;29.00;23.00;;;;;;;;5010539;28;45804;-82
2022/04/27 03:09:32;;;;;;;;;23.00;21.67;;;;;;;;5011884;28;46577;-77
2022/04/27 03:11:57;;;;;;;;;25.67;24.00;;;;;;;;5010470;28;46391;-76
2022/04/27 03:14:23;;;;;;;;;23.00;20.00;;;;;;;;5020342;28;45423;-80
2022/04/27 03:16:48;;;;;;;;;26.33;22.67;;;;;;;;5026843;28;45199;-83
2022/04/27 03:19:14;;;;;;;;;26.33;22.67;;;;;;;;5022698;27;45307;-76
2022/04/27 03:21:39;;;;;;;;;28.33;24.00;;;;;;;;5011949;28;45800;-81
2022/04/27 03:24:05;;;;;;;;;24.00;22.00;;;;;;;;5012283;28;45564;-81
2022/04/27 03:26:30;;;;;;;;;26.00;23.00;;;;;;;;4996558;28;45663;-76
2022/04/27 03:28:55;;;;;;;;;26.67;24.00;;;;;;;;4991753;28;45399;-75
2022/04/27 03:31:20;;;;;;;;;27.33;21.67;;;;;;;;4994911;28;45368;-81
2022/04/27 03:33:45;;;;;;;;;26.00;23.33;;;;;;;;4993351;28;45362;-78
2022/04/27 03:36:11;;;;;;;;;27.00;26.00;;;;;;;;5013143;28;45744;-80
2022/04/27 03:38:38;;;;;;;;;28.00;26.00;;;;;;;;5010933;28;45797;-80
2022/04/27 03:41:03;;;;;;;;;25.00;23.75;;;;;;;;5005836;28;47003;-79
2022/04/27 03:43:28;;;;;;;;;30.50;27.75;;;;;;;;5010522;28;45717;-77
2022/04/27 03:45:54;;;;;;;;;29.33;26.00;;;;;;;;4994423;28;45480;-80
2022/04/27 03:48:19;;;;;;;;;30.75;29.00;;;;;;;;5010689;28;45395;-77
2022/04/27 03:50:44;;;;;;;;;26.33;25.00;;;;;;;;5012641;28;45425;-80
2022/04/27 03:53:10;;;;;;;;;31.00;26.00;;;;;;;;5011215;27;45542;-77
2022/04/27 03:55:35;;;;;;;;;29.00;28.33;;;;;;;;4990410;28;45646;-76
2022/04/27 03:58:01;;;;;;;;;25.33;24.67;;;;;;;;4973179;28;45765;-80
2022/04/27 04:00:26;;;;;;;;;31.25;29.25;;;;;;;;4990960;28;45824;-77
2022/04/27 04:02:52;;;;;;;;;29.33;26.33;;;;;;;;4989144;28;45671;-76
2022/04/27 04:05:17;;;;;;;;;24.33;20.00;;;;;;;;4992037;28;45711;-78
2022/04/27 04:07:42;;;;;;;;;29.00;25.00;;;;;;;;4973384;28;47410;-76
2022/04/27 04:10:08;;;;;;;;;31.75;24.25;;;;;;;;5007206;27;46278;-80
2022/04/27 04:12:33;;;;;;;;;32.33;28.67;;;;;;;;4992726;28;45444;-80
2022/04/27 04:14:58;;;;;;;;;39.67;29.00;;;;;;;;5011400;28;45828;-79
2022/04/27 04:17:23;;;;;;;;;38.00;32.00;;;;;;;;5011306;28;45842;-76
2022/04/27 04:19:49;;;;;;;;;34.50;26.50;;;;;;;;5011688;28;46029;-74
2022/04/27 04:22:14;;;;;;;;;32.25;27.75;;;;;;;;5009072;28;45876;-79
2022/04/27 04:28:29;;;;;;;;;28.67;28.33;;;;;;;;5009610;27;45694;-79
2022/04/27 04:30:10;;;;;;;;;33.33;27.67;;;;;;;;4991165;28;45490;-76
2022/04/27 04:32:39;;;;;;;;;30.00;25.00;;;;;;;;4989158;28;45382;-81
2022/04/27 04:35:05;;;;;;;;;33.33;28.00;;;;;;;;5001376;28;45328;-83
2022/04/27 04:37:31;;;;;;;;;29.00;26.00;;;;;;;;5006159;28;45862;-83
2022/04/27 04:39:57;;;;;;;;;30.75;29.00;;;;;;;;5013809;28;47263;-82
2022/04/27 04:42:23;;;;;;;;;38.75;31.75;;;;;;;;5013938;28;45364;-84
2022/04/27 04:44:48;;;;;;;;;35.75;32.00;;;;;;;;5013667;28;45345;-80
2022/04/27 04:47:14;;;;;;;;;30.50;28.25;;;;;;;;5010915;27;45815;-75
2022/04/27 04:49:39;;;;;;;;;37.25;32.75;;;;;;;;5010388;28;45619;-81
2022/04/27 04:52:07;;;;;;;;;43.00;34.00;;;;;;;;5010419;28;45393;-76
2022/04/27 04:54:32;;;;;;;;;44.00;31.50;;;;;;;;5009330;28;45470;-81
2022/04/27 04:56:57;;;;;;;;;36.25;31.50;;;;;;;;4995499;27;47129;-80
2022/04/27 04:59:23;;;;;;;;;34.33;29.67;;;;;;;;5009700;27;48521;-76
2022/04/27 05:01:48;;;;;;;;;36.00;31.25;;;;;;;;4998014;27;45589;-81
2022/04/27 05:04:13;;;;;;;;;36.00;31.75;;;;;;;;5001691;27;45658;-80
2022/04/27 05:06:38;;;;;;;;;30.00;28.33;;;;;;;;4996073;27;45473;-81
2022/04/27 05:09:04;;;;;;;;;42.50;34.75;;;;;;;;5010690;27;47101;-81
2022/04/27 05:11:29;;;;;;;;;40.33;32.00;;;;;;;;5014803;27;45489;-82
2022/04/27 05:13:54;;;;;;;;;36.50;28.50;;;;;;;;5016772;27;45733;-82
2022/04/27 05:16:19;;;;;;;;;41.25;31.75;;;;;;;;5022841;27;45860;-82
2022/04/27 05:18:45;;;;;;;;;50.00;40.00;;;;;;;;5013464;27;45816;-81
2022/04/27 05:21:10;;;;;;;;;34.67;28.00;;;;;;;;5034261;27;45432;-83
2022/04/27 05:23:35;;;;;;;;;35.33;30.00;;;;;;;;5017265;27;45807;-82
2022/04/27 05:26:01;;;;;;;;;36.75;32.50;;;;;;;;5070555;27;45843;-77
2022/04/27 05:31:53;;;;;;;;;35.33;30.00;;;;;;;;5021396;27;45339;-82
2022/04/27 05:33:56;;;;;;;;;34.67;31.33;;;;;;;;5048871;27;45783;-80
2022/04/27 05:36:21;;;;;;;;;40.00;33.00;;;;;;;;5036778;27;45503;-81
2022/04/27 05:38:48;;;;;;;;;33.67;30.00;;;;;;;;5053095;27;45771;-76
2022/04/27 05:41:13;;;;;;;;;40.00;33.33;;;;;;;;5043005;27;45161;-77
2022/04/27 05:43:39;;;;;;;;;41.33;35.33;;;;;;;;5060714;27;45399;-77
2022/04/27 05:46:05;;;;;;;;;35.67;32.67;;;;;;;;5042016;27;45284;-77
2022/04/27 05:48:31;;;;;;;;;40.33;34.67;;;;;;;;5035925;28;45586;-78
2022/04/27 05:50:56;;;;;;;;;42.00;33.67;;;;;;;;5023186;28;44842;-78
2022/04/27 05:53:22;;;;;;;;;40.00;33.00;;;;;;;;5006453;27;45660;-81
2022/04/27 05:55:47;;;;;;;;;32.67;27.33;;;;;;;;5008928;28;45797;-83
2022/04/27 05:58:13;;;;;;;;;34.33;30.33;;;;;;;;5020867;27;47166;-77
2022/04/27 06:00:38;;;;;;;;;41.33;36.00;;;;;;;;5006385;27;45943;-79
2022/04/27 06:03:03;;;;;;;;;36.00;31.33;;;;;;;;5017593;27;45821;-77
2022/04/27 06:05:29;;;;;;;;;25.67;24.00;;;;;;;;4989924;27;45611;-81
2022/04/27 06:07:54;;;;;;;;;31.00;27.00;;;;;;;;4999027;27;46298;-81
2022/04/27 06:10:19;;;;;;;;;33.00;28.00;;;;;;;;4994289;27;46010;-77
2022/04/27 06:12:46;;;;;;;;;35.67;31.33;;;;;;;;4980491;27;45981;-77
2022/04/27 06:15:15;;;;;;;;;24.67;22.67;;;;;;;;4996851;27;45528;-78
2022/04/27 06:17:40;;;;;;;;;27.67;23.00;;;;;;;;4996394;27;48135;-82
2022/04/27 06:20:06;;;;;;;;;32.67;30.33;;;;;;;;4999292;27;45820;-76
2022/04/27 06:22:31;;;;;;;;;28.67;23.67;;;;;;;;5004238;27;45936;-80
2022/04/27 06:24:56;;;;;;;;;30.67;26.00;;;;;;;;4978291;27;46889;-81
2022/04/27 06:27:22;;;;;;;;;32.00;29.00;;;;;;;;5003132;27;45463;-80
2022/04/27 06:29:48;;;;;;;;;30.00;25.33;;;;;;;;5000514;27;46057;-80
2022/04/27 06:32:14;;;;;;;;;33.33;29.00;;;;;;;;5000490;27;45947;-80
2022/04/27 06:34:40;;;;;;;;;27.33;24.00;;;;;;;;4993181;27;46054;-77
2022/04/27 06:37:05;;;;;;;;;34.00;26.33;;;;;;;;5002121;27;46146;-75
2022/04/27 06:39:30;;;;;;;;;29.67;26.67;;;;;;;;4992402;27;45577;-81
2022/04/27 06:41:56;;;;;;;;;26.67;22.00;;;;;;;;4989938;27;45753;-84
2022/04/27 06:44:21;;;;;;;;;28.33;26.33;;;;;;;;5011477;27;45995;-76
2022/04/27 06:46:46;;;;;;;;;30.00;28.00;;;;;;;;4987195;28;46239;-76
2022/04/27 06:49:11;;;;;;;;;32.00;24.67;;;;;;;;4991297;28;45656;-77
2022/04/27 06:51:37;;;;;;;;;31.33;28.33;;;;;;;;5006524;28;46149;-76
2022/04/27 06:54:05;;;;;;;;;33.33;26.67;;;;;;;;4997162;27;46072;-81
2022/04/27 06:56:30;;;;;;;;;31.00;26.67;;;;;;;;4992464;27;45774;-74
2022/04/27 06:58:55;;;;;;;;;27.67;23.67;;;;;;;;4995150;27;45534;-75
2022/04/27 07:01:21;;;;;;;;;36.33;31.67;;;;;;;;5000583;27;45294;-79
2022/04/27 07:03:46;;;;;;;;;29.00;25.00;;;;;;;;4999884;27;45251;-77
2022/04/27 07:06:12;;;;;;;;;34.33;30.33;;;;;;;;4995230;27;45544;-75
2022/04/27 07:08:38;;;;;;;;;28.00;22.00;;;;;;;;4992734;27;45749;-77
2022/04/27 07:11:03;;;;;;;;;28.00;23.67;;;;;;;;5027848;27;45780;-74
2022/04/27 07:13:29;;;;;;;;;31.33;27.33;;;;;;;;5029529;27;46068;-74
2022/04/27 07:16:00;;;;;;;;;30.00;25.00;;;;;;;;4994594;27;46042;-74
2022/04/27 07:18:25;;;;;;;;;34.33;25.00;;;;;;;;4985259;28;46132;-74
2022/04/27 07:20:50;;;;;;;;;28.00;23.33;;;;;;;;5001902;27;45737;-80
2022/04/27 07:23:15;;;;;;;;;28.67;24.00;;;;;;;;5009466;28;46073;-78
2022/04/27 07:25:41;;;;;;;;;29.00;25.33;;;;;;;;5008924;27;45563;-79
2022/04/27 07:28:06;;;;;;;;;30.00;27.33;;;;;;;;5004917;27;45745;-82
2022/04/27 07:30:31;;;;;;;;;30.33;26.00;;;;;;;;5010379;27;46115;-80
2022/04/27 07:32:56;;;;;;;;;27.67;25.00;;;;;;;;4998961;28;45752;-79
2022/04/27 07:35:22;;;;;;;;;24.67;23.00;;;;;;;;4989882;28;45762;-83
2022/04/27 07:37:48;;;;;;;;;34.33;27.33;;;;;;;;4997113;27;45502;-85
2022/04/27 07:40:14;;;;;;;;;29.67;28.00;;;;;;;;4998287;28;45942;-77
2022/04/27 07:42:40;;;;;;;;;30.67;26.67;;;;;;;;4984400;28;46027;-77
2022/04/27 07:45:06;;;;;;;;;28.67;25.67;;;;;;;;4989962;28;45756;-82
2022/04/27 07:47:44;;;;;;;;;31.00;26.67;;;;;;;;4988422;28;45559;-77
2022/04/27 07:50:12;;;;;;;;;33.00;24.33;;;;;;;;5006752;28;45694;-82
2022/04/27 07:52:37;;;;;;;;;32.00;26.33;;;;;;;;5009378;27;45472;-77
2022/04/27 07:55:03;;;;;;;;;27.33;25.33;;;;;;;;5007550;27;45817;-82
2022/04/27 07:57:31;;;;;;;;;30.33;28.33;;;;;;;;5021338;27;45575;-80
2022/04/27 07:59:57;;;;;;;;;31.67;28.33;;;;;;;;4997495;28;45521;-82
2022/04/27 08:02:23;;;;;;;;;26.67;23.67;;;;;;;;4993738;27;45454;-83
2022/04/27 08:04:48;;;;;;;;;28.67;26.33;;;;;;;;4983713;28;46989;-82
2022/04/27 08:07:15;;;;;;;;;35.67;26.67;;;;;;;;5002617;28;45371;-84
2022/04/27 08:09:43;;;;;;;;;30.67;28.67;;;;;;;;5088102;27;44746;-83
2022/04/27 08:12:08;;;;;;;;;29.67;26.33;;;;;;;;5006809;28;44793;-82
2022/04/27 08:14:35;;;;;;;;;33.00;27.33;;;;;;;;5022393;27;46923;-84
2022/04/27 08:17:02;;;;;;;;;28.67;28.67;;;;;;;;5024759;27;44807;-82
2022/04/27 08:19:27;;;;;;;;;61.00;46.67;;;;;;;;5003232;28;45424;-77
2022/04/27 08:21:54;;;;;;;;;30.33;27.33;;;;;;;;5019866;27;44815;-83
2022/04/27 08:24:26;;;;;;;;;35.33;30.00;;;;;;;;4995625;28;46994;-79
2022/04/27 08:26:51;;;;;;;;;38.67;32.67;;;;;;;;5002447;27;45440;-83
2022/04/27 08:29:17;;;;;;;;;30.67;25.33;;;;;;;;5017979;27;45849;-83
2022/04/27 08:31:42;;;;;;;;;31.67;24.67;;;;;;;;5015852;27;46124;-83
2022/04/27 08:34:07;;;;;;;;;33.67;24.67;;;;;;;;4996117;27;46876;-78
2022/04/27 08:36:32;;;;;;;;;36.33;30.67;;;;;;;;4990718;28;45658;-79
2022/04/27 08:38:59;;;;;;;;;32.00;30.67;;;;;;;;4992103;28;45742;-86
2022/04/27 08:41:28;;;;;;;;;30.00;25.67;;;;;;;;4990909;28;45691;-82
2022/04/27 08:43:53;;;;;;;;;36.33;30.33;;;;;;;;4996185;27;47385;-83
2022/04/27 08:46:40;;;;;;;;;37.67;33.67;;;;;;;;5007411;28;45433;-85
2022/04/27 08:49:13;;;;;;;;;33.33;28.00;;;;;;;;5012961;28;45871;-83
2022/04/27 08:51:39;;;;;;;;;30.33;28.00;;;;;;;;5012928;28;45544;-84
2022/04/27 08:54:20;;;;;;;;;29.33;27.00;;;;;;;;4996259;27;46344;-84
2022/04/27 08:57:04;;;;;;;;;32.00;26.67;;;;;;;;5004737;28;45348;-84
2022/04/27 08:59:52;;;;;;;;;32.33;29.00;;;;;;;;4991509;27;45464;-83
2022/04/27 09:02:46;;;;;;;;;27.33;26.00;;;;;;;;5016119;27;45712;-84
2022/04/27 09:05:24;;;;;;;;;28.00;25.00;;;;;;;;5015091;27;46182;-82
2022/04/27 09:07:51;;;;;;;;;24.33;20.67;;;;;;;;5013319;28;45542;-79
2022/04/27 09:10:18;;;;;;;;;28.00;27.67;;;;;;;;4980852;27;45871;-79
2022/04/27 09:12:45;;;;;;;;;26.67;25.00;;;;;;;;4971775;28;46461;-83
2022/04/27 09:15:10;;;;;;;;;39.67;32.67;;;;;;;;4965391;28;45818;-81
2022/04/27 09:23:06;;;;;;;;;29.00;24.67;;;;;;;;4966621;28;45440;-86
2022/04/27 09:25:32;;;;;;;;;31.67;28.33;;;;;;;;4963652;28;47011;-81
2022/04/27 09:27:59;;;;;;;;;30.33;27.00;;;;;;;;4968828;28;45523;-81
2022/04/27 09:30:27;;;;;;;;;27.33;25.67;;;;;;;;4976512;28;45507;-78
2022/04/27 09:32:53;;;;;;;;;39.33;32.33;;;;;;;;4973211;28;45555;-83
2022/04/27 09:35:32;;;;;;;;;29.67;28.00;;;;;;;;4998958;28;46547;-82
2022/04/27 09:38:18;;;;;;;;;34.00;30.67;;;;;;;;4954905;28;45489;-82
2022/04/27 09:40:44;;;;;;;;;28.67;27.67;;;;;;;;4995196;28;45507;-81
2022/04/27 09:43:12;;;;;;;;;28.00;26.67;;;;;;;;4986514;28;45602;-82
2022/04/27 09:45:37;;;;;;;;;29.00;26.67;;;;;;;;4967055;28;47001;-82
2022/04/27 09:48:06;;;;;;;;;31.67;25.00;;;;;;;;4971571;28;45774;-84
2022/04/27 09:50:50;;;;;;;;;28.00;24.67;;;;;;;;4963231;28;46443;-81
2022/04/27 09:53:16;;;;;;;;;32.00;26.33;;;;;;;;4964589;28;45604;-84
2022/04/27 09:55:46;;;;;;;;;33.00;29.33;;;;;;;;4966947;28;46440;-83
2022/04/27 09:58:16;;;;;;;;;36.33;31.00;;;;;;;;4963088;28;45595;-83
2022/04/27 10:00:42;;;;;;;;;33.33;28.33;;;;;;;;4972973;28;45771;-83
2022/04/27 10:03:08;;;;;;;;;35.00;31.33;;;;;;;;4965886;28;45957;-83
2022/04/27 10:05:33;;;;;;;;;30.00;27.33;;;;;;;;4976657;28;46957;-83
2022/04/27 10:08:04;;;;;;;;;30.00;26.00;;;;;;;;4975004;28;45590;-82
2022/04/27 10:10:32;;;;;;;;;28.00;26.67;;;;;;;;4970547;27;45439;-83
2022/04/27 10:13:01;;;;;;;;;29.33;28.33;;;;;;;;4996898;28;45975;-85
2022/04/27 10:15:32;;;;;;;;;29.33;25.67;;;;;;;;5001596;28;46178;-85
2022/04/27 10:17:57;;;;;;;;;33.00;30.00;;;;;;;;4987831;28;45585;-78
2022/04/27 10:20:27;;;;;;;;;27.67;27.67;;;;;;;;4989589;27;45377;-85
2022/04/27 10:23:06;;;;;;;;;31.67;25.67;;;;;;;;4980336;28;45509;-83
2022/04/27 10:25:34;;;;;;;;;35.00;29.67;;;;;;;;4991699;28;47275;-85
2022/04/27 10:28:15;;;;;;;;;35.00;28.00;;;;;;;;4981325;28;45887;-82
2022/04/27 10:30:42;;;;;;;;;22.33;20.33;;;;;;;;4978591;28;45538;-84
2022/04/27 10:33:23;;;;;;;;;;;;;;;;;;;;;
2022/04/27 10:35:53;;;;;;;;;33.00;29.33;;;;;;;;4972775;28;74775;-81
2022/04/27 10:38:26;;;;;;;;;31.33;28.00;;;;;;;;4970397;28;46012;-82
2022/04/27 10:41:04;;;;;;;;;41.33;32.67;;;;;;;;4986961;28;45545;-81
2022/04/27 10:43:43;;;;;;;;;29.67;27.33;;;;;;;;4955238;28;46974;-84
2022/04/27 10:46:50;;;;;;;;;;;;;;;;;;;;;
2022/04/27 10:49:28;;;;;;;;;30.00;28.67;;;;;;;;4970370;28;71927;-82
2022/04/27 10:52:04;;;;;;;;;33.00;31.00;;;;;;;;4983493;28;45732;-81
2022/04/27 10:56:01;;;;;;;;;30.67;29.67;;;;;;;;4973418;28;46279;-81
2022/04/27 10:58:13;;;;;;;;;30.33;28.33;;;;;;;;4944120;28;45128;-85
2022/04/27 11:00:57;;;;;;;;;29.00;25.33;;;;;;;;4929788;28;45896;-81
2022/04/27 11:03:39;;;;;;;;;31.33;27.33;;;;;;;;4982049;28;45639;-81
2022/04/27 11:06:05;;;;;;;;;24.67;22.33;;;;;;;;4971003;28;45326;-80
2022/04/27 11:08:43;;;;;;;;;27.67;23.67;;;;;;;;4980450;28;45845;-81
2022/04/27 11:11:11;;;;;;;;;18.00;14.33;;;;;;;;4972055;28;45428;-80
2022/04/27 11:13:37;;;;;;;;;35.00;27.67;;;;;;;;4969418;28;45541;-81
2022/04/27 11:16:51;;;;;;;;;;;;;;;;;;;;;
2022/04/27 11:19:20;;;;;;;;;27.00;23.00;;;;;;;;4950357;28;76123;-81
2022/04/27 11:21:55;;;;;;;;;30.67;23.00;;;;;;;;4978587;28;45351;-81
2022/04/27 11:24:22;;;;;;;;;25.33;24.33;;;;;;;;4980848;28;45546;-80
2022/04/27 11:26:48;;;;;;;;;30.33;25.67;;;;;;;;4986788;28;45960;-80
2022/04/27 11:29:14;;;;;;;;;25.67;24.33;;;;;;;;4975201;28;47136;-80
2022/04/27 11:31:43;;;;;;;;;27.33;24.33;;;;;;;;4973383;28;45964;-80
2022/04/27 11:34:40;;;;;;;;;35.33;28.33;;;;;;;;4980745;28;45535;-80
2022/04/27 11:37:20;;;;;;;;;35.33;32.33;;;;;;;;4978560;28;45492;-80
2022/04/27 11:39:50;;;;;;;;;32.00;24.67;;;;;;;;4981667;28;45825;-80
2022/04/27 11:42:35;;;;;;;;;34.33;31.00;;;;;;;;4974878;28;45312;-80
2022/04/27 11:48:44;;;;;;;;;29.00;26.00;;;;;;;;4936204;28;45423;-78
2022/04/27 11:51:13;;;;;;;;;25.33;19.33;;;;;;;;4945972;28;45495;-80
2022/04/27 11:53:48;;;;;;;;;27.00;25.00;;;;;;;;4925381;28;44798;-76
2022/04/27 11:56:17;;;;;;;;;32.67;27.33;;;;;;;;4952197;28;45861;-77
2022/04/27 11:59:21;;;;;;;;;29.33;24.67;;;;;;;;4957914;28;44829;-78
2022/04/27 12:02:03;;;;;;;;;;;;;;;;;;;;;
2022/04/27 12:17:35;;;;;;;;;24.00;23.00;;;;;;;;5062064;28;45502;-81
2022/04/27 12:20:00;;;;;;;;;21.67;21.33;;;;;;;;5038331;28;45962;-80
2022/04/27 12:22:52;;;;;;;;;21.67;18.67;;;;;;;;5011776;28;45635;-81
2022/04/27 12:29:04;;;;;;;;;18.67;16.33;;;;;;;;4990446;28;45480;-81
2022/04/27 12:31:55;;;;;;;;;25.00;21.67;;;;;;;;4965712;28;45720;-80
2022/04/27 12:37:48;;;;;;;;;;;;;;;;;;;;;
2022/04/27 12:40:33;;;;;;;;;;;;;;;;;;;;;
2022/04/27 12:43:22;;;;;;;;;24.33;21.33;;;;;;;;4974935;28;68540;-80
2022/04/27 12:46:09;;;;;;;;;23.00;21.00;;;;;;;;4976632;28;45694;-81
2022/04/27 12:48:38;;;;;;;;;29.00;21.33;;;;;;;;4987861;28;45518;-81
2022/04/27 12:51:17;;;;;;;;;23.33;18.67;;;;;;;;4974495;28;45473;-80
2022/04/27 12:53:57;;;;;;;;;18.00;18.00;;;;;;;;4977347;28;45626;-80
2022/04/27 12:56:40;;;;;;;;;21.33;19.33;;;;;;;;4975743;28;45786;-81
2022/04/27 13:00:01;;;;;;;;;18.33;16.00;;;;;;;;5035050;28;45395;-81
2022/04/27 13:02:22;;;;;;;;;;;;;;;;;;;;;
2022/04/27 13:05:02;;;;;;;;;23.67;19.00;;;;;;;;4971564;28;68546;-81
2022/04/27 13:07:47;;;;;;;;;;;;;;;;;;;;;
2022/04/27 13:13:08;;;;;;;;;23.67;22.33;;;;;;;;4974599;28;45380;-80
2022/04/27 13:15:36;;;;;;;;;16.67;14.67;;;;;;;;5012461;27;45609;-83
2022/04/27 13:18:03;;;;;;;;;19.00;17.67;;;;;;;;5000705;28;45390;-84
2022/04/27 13:20:49;;;;;;;;;22.00;16.67;;;;;;;;5017036;28;45788;-82
2022/04/27 13:23:18;;;;;;;;;21.00;20.33;;;;;;;;5009694;27;45529;-82
2022/04/27 13:26:18;;;;;;;;;;;;;;;;;;;;;
2022/04/27 13:29:03;;;;;;;;;18.00;15.67;;;;;;;;4994127;27;73289;-83
2022/04/27 13:31:32;;;;;;;;;25.33;22.33;;;;;;;;4993358;27;46779;-83
2022/04/27 13:34:13;;;;;;;;;20.00;18.00;;;;;;;;5033698;27;46913;-84
2022/04/27 13:36:47;;;;;;;;;22.00;17.67;;;;;;;;5066737;27;45256;-83
2022/04/27 13:39:26;;;;;;;;;17.67;17.00;;;;;;;;5013837;27;46145;-83
2022/04/27 13:42:05;;;;;;;;;19.33;18.67;;;;;;;;4994516;27;47726;-82
2022/04/27 13:44:34;;;;;;;;;20.67;18.67;;;;;;;;5018991;27;45875;-83
2022/04/27 13:47:18;;;;;;;;;22.67;18.67;;;;;;;;5000910;27;45248;-84
2022/04/27 13:50:00;;;;;;;;;23.33;20.33;;;;;;;;4985810;27;45852;-84
2022/04/27 13:53:17;;;;;;;;;;;;;;;;;;;;;
2022/04/27 13:55:54;;;;;;;;;20.33;17.67;;;;;;;;4958689;28;45590;-84
2022/04/27 14:02:11;;;;;;;;;22.33;20.00;;;;;;;;4967025;28;45727;-84
2022/04/27 14:05:00;;;;;;;;;21.33;17.67;;;;;;;;4968483;28;46013;-81
2022/04/27 14:10:53;;;;;;;;;;;;;;;;;;;;;
2022/04/27 14:13:24;;;;;;;;;21.33;20.33;;;;;;;;4976347;28;72589;-84
2022/04/27 14:19:09;;;;;;;;;22.00;19.33;;;;;;;;4951204;28;45833;-82
2022/04/27 14:21:38;;;;;;;;;19.00;15.33;;;;;;;;4981632;28;45585;-81
2022/04/27 14:24:24;;;;;;;;;24.00;22.00;;;;;;;;4996842;27;46953;-82
2022/04/27 14:26:53;;;;;;;;;22.00;20.33;;;;;;;;4980893;28;45482;-81
2022/04/27 14:29:18;;;;;;;;;18.00;15.00;;;;;;;;4991686;28;45565;-83
2022/04/27 14:31:47;;;;;;;;;14.00;14.00;;;;;;;;4975103;28;44855;-84
2022/04/27 14:34:12;;;;;;;;;16.67;15.67;;;;;;;;4968985;28;45572;-81
2022/04/27 14:36:38;;;;;;;;;16.00;15.67;;;;;;;;4987020;28;47154;-83
2022/04/27 14:39:03;;;;;;;;;17.67;17.00;;;;;;;;4968200;28;45601;-82
2022/04/27 14:41:30;;;;;;;;;18.33;17.33;;;;;;;;4964591;28;45440;-81
2022/04/27 14:43:59;;;;;;;;;21.00;18.67;;;;;;;;4971428;28;46434;-85
2022/04/27 14:46:25;;;;;;;;;19.33;16.33;;;;;;;;4978198;27;47806;-81
2022/04/27 14:48:58;;;;;;;;;18.00;15.33;;;;;;;;4978864;27;45872;-81
2022/04/27 14:51:24;;;;;;;;;16.67;16.67;;;;;;;;4992945;28;45921;-82
2022/04/27 14:53:50;;;;;;;;;17.67;15.67;;;;;;;;4992770;28;45625;-82
2022/04/27 14:56:16;;;;;;;;;17.67;16.67;;;;;;;;4979398;28;46285;-83
2022/04/27 14:58:41;;;;;;;;;19.00;16.00;;;;;;;;4965332;28;45450;-79
2022/04/27 15:01:07;;;;;;;;;20.67;16.33;;;;;;;;4970851;28;45467;-80
2022/04/27 15:03:34;;;;;;;;;14.67;14.33;;;;;;;;4978851;28;46808;-81
2022/04/27 15:06:00;;;;;;;;;19.33;16.33;;;;;;;;4993929;28;48063;-80
2022/04/27 15:08:25;;;;;;;;;15.33;13.00;;;;;;;;5001841;28;46080;-81
2022/04/27 15:10:50;;;;;;;;;14.00;13.67;;;;;;;;4988998;28;45472;-81
2022/04/27 15:13:16;;;;;;;;;16.33;15.00;;;;;;;;5002619;28;45464;-79
2022/04/27 15:15:41;;;;;;;;;22.00;17.67;;;;;;;;4986711;28;47034;-80
2022/04/27 15:18:06;;;;;;;;;14.67;14.67;;;;;;;;5001964;27;45486;-80
2022/04/27 15:23:22;;;;;;;;;14.33;12.00;;;;;;;;4992229;27;45784;-80
2022/04/27 15:25:47;;;;;;;;;15.33;11.00;;;;;;;;4982743;28;46239;-79
2022/04/27 15:28:13;;;;;;;;;18.00;13.67;;;;;;;;4990290;27;45636;-79
2022/04/27 15:30:39;;;;;;;;;13.33;11.67;;;;;;;;5000020;28;45510;-78
2022/04/27 15:33:05;;;;;;;;;14.67;14.00;;;;;;;;4983032;28;45745;-78
2022/04/27 15:35:31;;;;;;;;;12.00;10.33;;;;;;;;5013301;27;45410;-79
2022/04/27 15:37:57;;;;;;;;;20.33;16.33;;;;;;;;4985904;28;45459;-80